Flight Track Log - Related Links

Times and Time Zones

All times are in EDT time to prevent confusion due to time zone crossing. See the SWA1960 flight status page for this flight to view local times or setup timezone preferences in your user account.

Time Position Orientation Groundspeed Altitude Reporting Facility
EDT Latitude Longitude Course Direction KTS MPH feet Rate Location/Type
Sun 02:22:22 PM 39.1667 -76.7333 166° South 181 208 2,900  Level Potomac TRACON
Sun 02:23:22 PM 39.1167 -76.7167 165° South 217 250 6,300 3,471 Climbing Potomac TRACON
Sun 02:24:23 PM 39.0667 -76.6667 142° Southeast 227 261 9,900 3,174 Climbing Potomac TRACON
Sun 02:25:23 PM 39.0333 -76.6000 123° Southeast 250 288 12,700 2,033 Climbing Potomac TRACON
Sun 02:26:24 PM 38.9500 -76.5667 163° South 332 382 14,000 992 Climbing Potomac TRACON
Sun 02:27:30 PM 38.8500 -76.6000 195° South 359 413 14,800 1,839 Climbing Potomac TRACON
Sun 02:28:41 PM 38.7314 -76.6481 198° South 373 429 18,200 1,924 Climbing Washington Center
Sun 02:29:41 PM 38.6331 -76.6919 199° South 373 429 19,000 1,000 Climbing Washington Center
Sun 02:30:41 PM 38.5389 -76.7278 197° South 368 423 20,200 1,900 Climbing Washington Center
Sun 02:31:41 PM 38.4347 -76.7156 175° South 365 420 22,800 1,600 Climbing Washington Center
Sun 02:32:41 PM 38.3244 -76.6981 173° South 378 435 23,400 1,550 Climbing Washington Center
Sun 02:33:41 PM 38.2161 -76.6778 172° South 391 450 25,900 1,300 Climbing Washington Center
Sun 02:34:41 PM 38.1017 -76.6631 174° South 402 463 26,000 800 Climbing Washington Center
Sun 02:35:41 PM 37.9892 -76.6483 174° South 408 470 27,500 1,333 Climbing Washington Center
Sun 02:37:41 PM 37.7639 -76.6714 185° South 403 464 30,000 833 Climbing Washington Center
Sun 02:38:41 PM 37.6511 -76.6831 185° South 408 470 30,000  Level Washington Center
Sun 02:39:41 PM 37.5383 -76.6997 187° South 408 470 30,000  Level Washington Center
Sun 02:40:41 PM 37.4275 -76.7164 187° South 408 470 30,000  Level Washington Center
Sun 02:41:41 PM 37.3186 -76.7617 198° South 408 470 30,000 1,150 Level Washington Center
Sun 02:42:41 PM 37.2139 -76.8072 199° South 408 470 32,300 2,150 Climbing Washington Center
Sun 02:43:41 PM 37.1114 -76.8472 197° South 402 463 34,300 1,850 Climbing Washington Center
Sun 02:44:41 PM 37.0147 -76.8897 199° South 390 449 36,000 1,650 Climbing Washington Center
Sun 02:45:41 PM 36.9164 -76.9297 198° South 379 436 37,600 1,000 Climbing Washington Center
Sun 02:46:41 PM 36.8219 -76.9697 199° South 367 422 38,000 200 Climbing Washington Center
Sun 02:47:41 PM 36.7297 -77.0069 198° South 367 422 38,000  Level Washington Center
Sun 02:48:41 PM 36.6478 -77.0700 212° Southwest 360 414 38,000  Level Washington Center
Sun 02:49:41 PM 36.5675 -77.1436 216° Southwest 354 407 38,000  Level Washington Center
Sun 02:50:41 PM 36.4894 -77.2117 215° Southwest 354 407 38,000  Level Washington Center
Sun 02:51:41 PM 36.4092 -77.2825 215° Southwest 359 413 38,000  Level Washington Center
Sun 02:52:41 PM 36.3308 -77.3531 216° Southwest 359 413 38,000  Level Washington Center
Sun 02:53:41 PM 36.2506 -77.4206 214° Southwest 364 419 38,000  Level Washington Center
Sun 02:54:41 PM 36.1850 -77.4833 218° Southwest 353 406 38,000  Level Washington Center
Sun 02:55:41 PM 36.1044 -77.5536 215° Southwest 353 406 38,000  Level Washington Center
Sun 02:56:41 PM 36.0242 -77.6233 215° Southwest 353 406 38,000  Level Washington Center
Sun 02:57:41 PM 35.9458 -77.6908 215° Southwest 359 413 38,000  Level Washington Center
Sun 02:58:41 PM 35.8631 -77.7603 214° Southwest 364 419 38,000  Level Washington Center
Sun 02:59:41 PM 35.7825 -77.8297 215° Southwest 364 419 38,000  Level Washington Center
Sun 03:00:41 PM 35.6997 -77.9017 215° Southwest 364 419 38,000  Level Washington Center
Sun 03:01:41 PM 35.6172 -77.9708 214° Southwest 364 419 38,000 -200 Level Washington Center
Sun 03:02:41 PM 35.5342 -78.0422 215° Southwest 364 419 37,600 -650 Descending Washington Center
Sun 03:03:41 PM 35.4514 -78.1086 213° Southwest 364 419 36,700 -800 Descending Washington Center
Sun 03:04:41 PM 35.3664 -78.1825 215° Southwest 369 425 36,000 -850 Descending Washington Center
Sun 03:05:41 PM 35.2794 -78.2483 212° Southwest 369 425 35,000 -1,000 Descending Washington Center
Sun 03:06:41 PM 35.1925 -78.3139 212° Southwest 374 430 34,000 -1,000 Descending Washington Center
Sun 03:07:41 PM 35.1011 -78.3844 212° Southwest 374 430 33,000 -1,000 Descending Washington Center
Sun 03:08:41 PM 35.0203 -78.4478 213° Southwest 369 425 32,000 -1,000 Descending Washington Center
Sun 03:09:41 PM 34.9394 -78.5108 213° Southwest 364 419 31,000 -1,000 Descending Washington Center
Sun 03:10:41 PM 34.8589 -78.5686 210° Southwest 351 404 30,000 -1,000 Descending Washington Center
Sun 03:11:41 PM 34.7950 -78.6219 214° Southwest 333 383 29,000 -1,000 Descending Washington Center
Sun 03:12:41 PM 34.7078 -78.6869 211° Southwest 333 383 28,000 -377 Descending Washington Center
Sun 03:14:20 PM 34.5850 -78.7794 212° Southwest 337 388 28,000  Level Jacksonville Center
Sun 03:15:20 PM 34.5036 -78.8414 212° Southwest 342 394 28,000  Level Jacksonville Center
Sun 03:16:20 PM 34.4222 -78.9081 214° Southwest 349 402 28,000  Level Jacksonville Center
Sun 03:17:20 PM 34.3389 -78.9747 213° Southwest 354 407 28,000  Level Jacksonville Center
Sun 03:18:20 PM 34.2531 -79.0314 209° Southwest 354 407 28,000 -250 Level Jacksonville Center
Sun 03:19:20 PM 34.1603 -79.0731 200° South 354 407 27,500 -750 Descending Jacksonville Center
Sun 03:20:20 PM 34.0636 -79.1150 200° South 360 414 26,500 -1,000 Descending Jacksonville Center
Sun 03:21:20 PM 33.9731 -79.1564 201° Southwest 365 420 25,500 -1,000 Descending Jacksonville Center
Sun 03:22:20 PM 33.8825 -79.1978 201° Southwest 365 420 24,500 -1,000 Descending Jacksonville Center
Sun 03:23:20 PM 33.7919 -79.2392 201° Southwest 360 414 23,500 -1,050 Descending Jacksonville Center
Sun 03:24:20 PM 33.7061 -79.3000 211° Southwest 340 391 22,400 -850 Descending Jacksonville Center
Sun 03:25:20 PM 33.6261 -79.3581 211° Southwest 340 391 21,800 -800 Descending Jacksonville Center
Sun 03:26:20 PM 33.5467 -79.4186 212° Southwest 340 391 20,800 -1,450 Descending Jacksonville Center
Sun 03:27:20 PM 33.4669 -79.4817 213° Southwest 340 391 18,900 -1,800 Descending Jacksonville Center
Sun 03:28:20 PM 33.3892 -79.5367 211° Southwest 340 391 17,200 2,550 Descending Jacksonville Center
Sun 03:29:20 PM 33.3114 -79.5969 213° Southwest 340 391 24,000 -3,300 Climbing Jacksonville Center
Sun 03:30:20 PM 33.2253 -79.6572 210° Southwest 349 402 10,600 -7,000 Descending Jacksonville Center
Sun 03:31:20 PM 33.1428 -79.6972 202° Southwest 344 396 10,000 -950 Descending Jacksonville Center
Sun 03:32:20 PM 33.0686 -79.7322 202° Southwest 316 364 8,700 -1,250 Descending Jacksonville Center
Sun 03:33:20 PM 33.0006 -79.7669 203° Southwest 290 334 7,500 -1,350 Descending Jacksonville Center
Sun 03:34:20 PM 32.9344 -79.7989 202° Southwest 271 312 6,000 -1,700 Descending Jacksonville Center
Sun 03:35:20 PM 32.8664 -79.8358 205° Southwest 271 312 4,100 -1,000 Descending Jacksonville Center
Sun 03:36:20 PM 32.8047 -79.8725 207° Southwest 265 305 4,000 -150 Descending Jacksonville Center
Sun 03:37:20 PM 32.7789 -79.9303 242° Southwest 213 245 3,800 -550 Descending Jacksonville Center
Sun 03:38:20 PM 32.7700 -79.9972 261° West 198 228 2,900 -900 Descending Jacksonville Center
Sun 03:40:00 PM 32.8833 -80.0333 348° North  Level FlightAware Approximate
Sun 03:47:00 PM 32.8986 -80.0405 348° North  Level Estimated
Sun 03:48:00 PM 32.8986 -80.0405 348° North  Level Estimated
Sun 03:49:00 PM 32.8986 -80.0405 348° North  Level Estimated
Sun 03:50:00 PM 32.8986 -80.0405 348° North  Level Estimated
Sun 03:51:00 PM 32.8986 -80.0405 348° North  Level Estimated

Login

Don't have an account? Register now (free) for customized features, flight alerts, and more!